sensor_id;sensor_type;location;lat;lon;timestamp;P1;durP1;ratioP1;P2;durP2;ratioP2
71558;SDS011;59382;43.852;25.952;2023-03-01T00:01:52;15.88;;;9.63;;
71558;SDS011;59382;43.852;25.952;2023-03-01T00:04:18;17.00;;;8.85;;
71558;SDS011;59382;43.852;25.952;2023-03-01T00:06:43;13.50;;;9.00;;
71558;SDS011;59382;43.852;25.952;2023-03-01T00:09:13;12.77;;;8.48;;
71558;SDS011;59382;43.852;25.952;2023-03-01T00:11:39;13.60;;;8.70;;
71558;SDS011;59382;43.852;25.952;2023-03-01T00:14:05;15.07;;;9.15;;
71558;SDS011;59382;43.852;25.952;2023-03-01T00:16:36;15.85;;;9.70;;
71558;SDS011;59382;43.852;25.952;2023-03-01T00:19:15;14.40;;;8.82;;
71558;SDS011;59382;43.852;25.952;2023-03-01T00:21:42;14.85;;;9.35;;
71558;SDS011;59382;43.852;25.952;2023-03-01T00:24:08;15.27;;;9.23;;
71558;SDS011;59382;43.852;25.952;2023-03-01T00:26:34;13.45;;;8.68;;
71558;SDS011;59382;43.852;25.952;2023-03-01T00:29:00;12.82;;;8.85;;
71558;SDS011;59382;43.852;25.952;2023-03-01T00:31:30;14.95;;;9.10;;
71558;SDS011;59382;43.852;25.952;2023-03-01T00:33:57;12.30;;;9.07;;
71558;SDS011;59382;43.852;25.952;2023-03-01T00:36:28;15.30;;;9.55;;
71558;SDS011;59382;43.852;25.952;2023-03-01T00:38:55;11.18;;;8.48;;
71558;SDS011;59382;43.852;25.952;2023-03-01T00:41:22;14.18;;;9.20;;
71558;SDS011;59382;43.852;25.952;2023-03-01T00:43:48;14.95;;;9.02;;
71558;SDS011;59382;43.852;25.952;2023-03-01T00:46:19;13.63;;;9.57;;
71558;SDS011;59382;43.852;25.952;2023-03-01T00:48:46;15.20;;;9.93;;
71558;SDS011;59382;43.852;25.952;2023-03-01T00:51:17;13.23;;;8.90;;
71558;SDS011;59382;43.852;25.952;2023-03-01T00:53:46;14.60;;;8.27;;
71558;SDS011;59382;43.852;25.952;2023-03-01T00:56:14;15.10;;;9.88;;
71558;SDS011;59382;43.852;25.952;2023-03-01T00:58:40;17.50;;;9.93;;
71558;SDS011;59382;43.852;25.952;2023-03-01T01:01:10;13.10;;;8.90;;
71558;SDS011;59382;43.852;25.952;2023-03-01T01:03:47;13.82;;;8.75;;
71558;SDS011;59382;43.852;25.952;2023-03-01T01:06:25;19.30;;;10.38;;
71558;SDS011;59382;43.852;25.952;2023-03-01T01:08:52;17.85;;;9.98;;
71558;SDS011;59382;43.852;25.952;2023-03-01T01:11:22;17.90;;;10.73;;
71558;SDS011;59382;43.852;25.952;2023-03-01T01:13:48;18.10;;;9.90;;
71558;SDS011;59382;43.852;25.952;2023-03-01T01:16:15;17.60;;;10.95;;
71558;SDS011;59382;43.852;25.952;2023-03-01T01:18:42;18.45;;;11.63;;
71558;SDS011;59382;43.852;25.952;2023-03-01T01:21:09;17.20;;;11.07;;
71558;SDS011;59382;43.852;25.952;2023-03-01T01:23:39;17.52;;;10.77;;
71558;SDS011;59382;43.852;25.952;2023-03-01T01:26:08;18.38;;;11.50;;
71558;SDS011;59382;43.852;25.952;2023-03-01T01:28:36;17.73;;;11.88;;
71558;SDS011;59382;43.852;25.952;2023-03-01T01:31:02;18.52;;;11.93;;
71558;SDS011;59382;43.852;25.952;2023-03-01T01:33:28;17.17;;;11.32;;
71558;SDS011;59382;43.852;25.952;2023-03-01T01:35:53;20.60;;;11.80;;
71558;SDS011;59382;43.852;25.952;2023-03-01T01:38:19;19.50;;;10.77;;
71558;SDS011;59382;43.852;25.952;2023-03-01T01:40:45;19.58;;;12.80;;
71558;SDS011;59382;43.852;25.952;2023-03-01T01:45:59;21.75;;;13.05;;
71558;SDS011;59382;43.852;25.952;2023-03-01T01:48:40;21.50;;;12.02;;
71558;SDS011;59382;43.852;25.952;2023-03-01T01:51:11;31.75;;;17.35;;
71558;SDS011;59382;43.852;25.952;2023-03-01T01:53:40;33.28;;;15.10;;
71558;SDS011;59382;43.852;25.952;2023-03-01T01:56:08;25.35;;;13.77;;
71558;SDS011;59382;43.852;25.952;2023-03-01T01:58:36;23.52;;;13.55;;
71558;SDS011;59382;43.852;25.952;2023-03-01T02:01:03;23.70;;;13.23;;
71558;SDS011;59382;43.852;25.952;2023-03-01T02:03:30;22.60;;;12.85;;
71558;SDS011;59382;43.852;25.952;2023-03-01T02:08:37;24.73;;;14.02;;
71558;SDS011;59382;43.852;25.952;2023-03-01T02:11:04;25.58;;;13.75;;
71558;SDS011;59382;43.852;25.952;2023-03-01T02:13:31;27.73;;;13.48;;
71558;SDS011;59382;43.852;25.952;2023-03-01T02:15:58;23.85;;;13.02;;
71558;SDS011;59382;43.852;25.952;2023-03-01T02:18:25;22.65;;;13.43;;
71558;SDS011;59382;43.852;25.952;2023-03-01T02:21:09;23.92;;;13.95;;
71558;SDS011;59382;43.852;25.952;2023-03-01T02:23:58;23.35;;;13.23;;
71558;SDS011;59382;43.852;25.952;2023-03-01T02:29:20;21.92;;;12.07;;
71558;SDS011;59382;43.852;25.952;2023-03-01T02:31:46;24.67;;;13.00;;
71558;SDS011;59382;43.852;25.952;2023-03-01T02:34:20;17.80;;;12.20;;
71558;SDS011;59382;43.852;25.952;2023-03-01T02:39:27;20.27;;;11.98;;
71558;SDS011;59382;43.852;25.952;2023-03-01T02:41:57;19.03;;;12.33;;
71558;SDS011;59382;43.852;25.952;2023-03-01T02:44:24;22.33;;;12.95;;
71558;SDS011;59382;43.852;25.952;2023-03-01T02:46:52;22.42;;;12.82;;
71558;SDS011;59382;43.852;25.952;2023-03-01T02:49:23;20.77;;;12.38;;
71558;SDS011;59382;43.852;25.952;2023-03-01T02:57:12;24.35;;;13.43;;
71558;SDS011;59382;43.852;25.952;2023-03-01T02:59:39;24.25;;;14.07;;
71558;SDS011;59382;43.852;25.952;2023-03-01T03:02:24;25.92;;;13.70;;
71558;SDS011;59382;43.852;25.952;2023-03-01T03:05:22;27.38;;;14.48;;
71558;SDS011;59382;43.852;25.952;2023-03-01T03:07:48;20.70;;;13.40;;
71558;SDS011;59382;43.852;25.952;2023-03-01T03:10:16;25.05;;;14.52;;
71558;SDS011;59382;43.852;25.952;2023-03-01T03:12:50;27.35;;;15.45;;
71558;SDS011;59382;43.852;25.952;2023-03-01T03:15:20;31.25;;;16.40;;
71558;SDS011;59382;43.852;25.952;2023-03-01T03:17:47;29.23;;;16.05;;
71558;SDS011;59382;43.852;25.952;2023-03-01T03:20:16;30.52;;;17.05;;
71558;SDS011;59382;43.852;25.952;2023-03-01T03:22:46;26.55;;;14.85;;
71558;SDS011;59382;43.852;25.952;2023-03-01T03:25:13;27.83;;;16.20;;
71558;SDS011;59382;43.852;25.952;2023-03-01T03:27:40;36.30;;;17.80;;
71558;SDS011;59382;43.852;25.952;2023-03-01T03:30:09;31.08;;;16.77;;
71558;SDS011;59382;43.852;25.952;2023-03-01T03:32:38;37.45;;;17.73;;
71558;SDS011;59382;43.852;25.952;2023-03-01T03:35:05;33.97;;;16.67;;
71558;SDS011;59382;43.852;25.952;2023-03-01T03:37:40;30.98;;;17.58;;
71558;SDS011;59382;43.852;25.952;2023-03-01T03:40:26;33.03;;;17.90;;
71558;SDS011;59382;43.852;25.952;2023-03-01T03:42:51;32.00;;;18.27;;
71558;SDS011;59382;43.852;25.952;2023-03-01T03:45:17;31.02;;;17.67;;
71558;SDS011;59382;43.852;25.952;2023-03-01T03:47:43;29.98;;;16.35;;
71558;SDS011;59382;43.852;25.952;2023-03-01T03:50:10;31.50;;;15.65;;
71558;SDS011;59382;43.852;25.952;2023-03-01T03:52:37;25.95;;;14.80;;
71558;SDS011;59382;43.852;25.952;2023-03-01T03:55:02;27.25;;;13.57;;
71558;SDS011;59382;43.852;25.952;2023-03-01T03:57:29;24.00;;;14.07;;
71558;SDS011;59382;43.852;25.952;2023-03-01T03:59:54;27.23;;;13.77;;
71558;SDS011;59382;43.852;25.952;2023-03-01T04:02:20;24.42;;;14.10;;
71558;SDS011;59382;43.852;25.952;2023-03-01T04:04:49;23.60;;;13.50;;
71558;SDS011;59382;43.852;25.952;2023-03-01T04:07:15;20.88;;;14.05;;
71558;SDS011;59382;43.852;25.952;2023-03-01T04:09:42;22.75;;;13.10;;
71558;SDS011;59382;43.852;25.952;2023-03-01T04:12:08;26.52;;;15.05;;
71558;SDS011;59382;43.852;25.952;2023-03-01T04:14:34;23.15;;;14.77;;
71558;SDS011;59382;43.852;25.952;2023-03-01T04:17:00;24.55;;;14.63;;
71558;SDS011;59382;43.852;25.952;2023-03-01T04:19:26;25.48;;;14.13;;
71558;SDS011;59382;43.852;25.952;2023-03-01T04:21:52;25.95;;;14.85;;
71558;SDS011;59382;43.852;25.952;2023-03-01T04:24:18;24.98;;;14.93;;
71558;SDS011;59382;43.852;25.952;2023-03-01T04:26:44;24.45;;;14.35;;
71558;SDS011;59382;43.852;25.952;2023-03-01T04:29:09;22.35;;;14.40;;
71558;SDS011;59382;43.852;25.952;2023-03-01T04:31:35;23.60;;;14.07;;
71558;SDS011;59382;43.852;25.952;2023-03-01T04:34:01;22.65;;;13.75;;
71558;SDS011;59382;43.852;25.952;2023-03-01T04:36:27;23.52;;;13.20;;
71558;SDS011;59382;43.852;25.952;2023-03-01T04:38:55;24.52;;;13.65;;
71558;SDS011;59382;43.852;25.952;2023-03-01T04:41:22;23.13;;;13.43;;
71558;SDS011;59382;43.852;25.952;2023-03-01T04:43:48;24.15;;;14.10;;
71558;SDS011;59382;43.852;25.952;2023-03-01T04:46:15;27.90;;;15.07;;
71558;SDS011;59382;43.852;25.952;2023-03-01T04:48:43;31.08;;;14.10;;
71558;SDS011;59382;43.852;25.952;2023-03-01T04:51:09;22.75;;;13.85;;
71558;SDS011;59382;43.852;25.952;2023-03-01T04:53:38;28.27;;;14.98;;
71558;SDS011;59382;43.852;25.952;2023-03-01T04:56:06;28.33;;;13.70;;
71558;SDS011;59382;43.852;25.952;2023-03-01T04:58:32;27.73;;;14.15;;
71558;SDS011;59382;43.852;25.952;2023-03-01T05:00:57;22.33;;;14.23;;
71558;SDS011;59382;43.852;25.952;2023-03-01T05:03:23;23.15;;;12.93;;
71558;SDS011;59382;43.852;25.952;2023-03-01T05:05:49;25.50;;;14.32;;
71558;SDS011;59382;43.852;25.952;2023-03-01T05:08:16;23.70;;;14.30;;
71558;SDS011;59382;43.852;25.952;2023-03-01T05:10:49;23.75;;;14.48;;
71558;SDS011;59382;43.852;25.952;2023-03-01T05:13:17;25.27;;;15.52;;
71558;SDS011;59382;43.852;25.952;2023-03-01T05:15:47;24.00;;;14.20;;
71558;SDS011;59382;43.852;25.952;2023-03-01T05:18:18;26.08;;;15.45;;
71558;SDS011;59382;43.852;25.952;2023-03-01T05:20:43;23.45;;;14.23;;
71558;SDS011;59382;43.852;25.952;2023-03-01T05:23:10;27.05;;;14.45;;
71558;SDS011;59382;43.852;25.952;2023-03-01T05:25:37;22.50;;;13.93;;
71558;SDS011;59382;43.852;25.952;2023-03-01T05:28:06;26.55;;;15.18;;
71558;SDS011;59382;43.852;25.952;2023-03-01T05:30:35;21.30;;;13.65;;
71558;SDS011;59382;43.852;25.952;2023-03-01T05:33:00;26.85;;;16.00;;
71558;SDS011;59382;43.852;25.952;2023-03-01T05:35:26;26.92;;;13.98;;
71558;SDS011;59382;43.852;25.952;2023-03-01T05:37:52;23.52;;;14.48;;
71558;SDS011;59382;43.852;25.952;2023-03-01T05:40:19;26.33;;;14.93;;
71558;SDS011;59382;43.852;25.952;2023-03-01T05:42:52;27.25;;;15.73;;
71558;SDS011;59382;43.852;25.952;2023-03-01T05:45:22;24.30;;;13.45;;
71558;SDS011;59382;43.852;25.952;2023-03-01T05:47:50;24.05;;;14.75;;
71558;SDS011;59382;43.852;25.952;2023-03-01T05:50:17;29.20;;;15.05;;
71558;SDS011;59382;43.852;25.952;2023-03-01T05:52:57;23.02;;;14.40;;
71558;SDS011;59382;43.852;25.952;2023-03-01T05:55:25;27.10;;;15.00;;
71558;SDS011;59382;43.852;25.952;2023-03-01T05:57:52;27.02;;;16.30;;
71558;SDS011;59382;43.852;25.952;2023-03-01T06:00:18;32.00;;;14.88;;
71558;SDS011;59382;43.852;25.952;2023-03-01T06:02:48;25.60;;;14.27;;
71558;SDS011;59382;43.852;25.952;2023-03-01T06:05:17;42.40;;;22.92;;
71558;SDS011;59382;43.852;25.952;2023-03-01T06:07:43;36.63;;;19.70;;
71558;SDS011;59382;43.852;25.952;2023-03-01T06:10:09;30.98;;;19.17;;
71558;SDS011;59382;43.852;25.952;2023-03-01T06:12:37;30.00;;;16.33;;
71558;SDS011;59382;43.852;25.952;2023-03-01T06:15:04;33.90;;;17.60;;
71558;SDS011;59382;43.852;25.952;2023-03-01T06:17:31;26.42;;;15.52;;
71558;SDS011;59382;43.852;25.952;2023-03-01T06:20:02;22.98;;;13.90;;
71558;SDS011;59382;43.852;25.952;2023-03-01T06:22:34;21.23;;;13.70;;
71558;SDS011;59382;43.852;25.952;2023-03-01T06:25:00;28.15;;;15.02;;
71558;SDS011;59382;43.852;25.952;2023-03-01T06:27:25;27.30;;;15.18;;
71558;SDS011;59382;43.852;25.952;2023-03-01T06:29:50;25.55;;;15.13;;
71558;SDS011;59382;43.852;25.952;2023-03-01T06:32:17;34.70;;;15.70;;
71558;SDS011;59382;43.852;25.952;2023-03-01T06:34:43;31.85;;;15.93;;
71558;SDS011;59382;43.852;25.952;2023-03-01T06:37:09;31.05;;;15.02;;
71558;SDS011;59382;43.852;25.952;2023-03-01T06:39:35;29.27;;;17.05;;
71558;SDS011;59382;43.852;25.952;2023-03-01T06:42:00;25.48;;;14.80;;
71558;SDS011;59382;43.852;25.952;2023-03-01T06:44:26;30.30;;;14.10;;
71558;SDS011;59382;43.852;25.952;2023-03-01T06:46:52;25.35;;;14.13;;
71558;SDS011;59382;43.852;25.952;2023-03-01T06:49:18;27.23;;;14.25;;
71558;SDS011;59382;43.852;25.952;2023-03-01T06:51:46;29.33;;;14.73;;
71558;SDS011;59382;43.852;25.952;2023-03-01T06:54:11;26.98;;;15.18;;
71558;SDS011;59382;43.852;25.952;2023-03-01T06:56:37;24.42;;;13.65;;
71558;SDS011;59382;43.852;25.952;2023-03-01T06:59:02;26.23;;;14.63;;
71558;SDS011;59382;43.852;25.952;2023-03-01T07:01:29;29.05;;;14.95;;
71558;SDS011;59382;43.852;25.952;2023-03-01T07:03:55;23.30;;;14.77;;
71558;SDS011;59382;43.852;25.952;2023-03-01T07:06:20;25.40;;;14.52;;
71558;SDS011;59382;43.852;25.952;2023-03-01T07:08:46;24.20;;;14.60;;
71558;SDS011;59382;43.852;25.952;2023-03-01T07:11:12;24.67;;;14.52;;
71558;SDS011;59382;43.852;25.952;2023-03-01T07:13:38;24.60;;;14.38;;
71558;SDS011;59382;43.852;25.952;2023-03-01T07:16:04;27.25;;;15.02;;
71558;SDS011;59382;43.852;25.952;2023-03-01T07:18:30;23.85;;;13.25;;
71558;SDS011;59382;43.852;25.952;2023-03-01T07:20:55;22.63;;;13.32;;
71558;SDS011;59382;43.852;25.952;2023-03-01T07:23:21;25.13;;;14.63;;
71558;SDS011;59382;43.852;25.952;2023-03-01T07:25:53;25.00;;;14.60;;
71558;SDS011;59382;43.852;25.952;2023-03-01T07:28:20;26.77;;;14.38;;
71558;SDS011;59382;43.852;25.952;2023-03-01T07:30:47;22.17;;;12.75;;
71558;SDS011;59382;43.852;25.952;2023-03-01T07:33:13;25.08;;;13.98;;
71558;SDS011;59382;43.852;25.952;2023-03-01T07:35:38;23.98;;;13.88;;
71558;SDS011;59382;43.852;25.952;2023-03-01T07:38:04;29.30;;;15.50;;
71558;SDS011;59382;43.852;25.952;2023-03-01T07:40:29;26.27;;;14.90;;
71558;SDS011;59382;43.852;25.952;2023-03-01T07:42:58;21.35;;;13.43;;
71558;SDS011;59382;43.852;25.952;2023-03-01T07:45:27;28.45;;;14.68;;
71558;SDS011;59382;43.852;25.952;2023-03-01T07:47:53;24.83;;;13.80;;
71558;SDS011;59382;43.852;25.952;2023-03-01T07:50:20;58.60;;;18.45;;
71558;SDS011;59382;43.852;25.952;2023-03-01T07:52:46;34.22;;;16.38;;
71558;SDS011;59382;43.852;25.952;2023-03-01T07:55:14;27.35;;;15.13;;
71558;SDS011;59382;43.852;25.952;2023-03-01T07:57:40;47.92;;;22.70;;
71558;SDS011;59382;43.852;25.952;2023-03-01T08:00:07;34.10;;;19.50;;
71558;SDS011;59382;43.852;25.952;2023-03-01T08:02:35;65.10;;;29.00;;
71558;SDS011;59382;43.852;25.952;2023-03-01T08:05:04;35.55;;;19.02;;
71558;SDS011;59382;43.852;25.952;2023-03-01T08:07:30;45.70;;;24.92;;
71558;SDS011;59382;43.852;25.952;2023-03-01T08:09:56;88.15;;;41.33;;
71558;SDS011;59382;43.852;25.952;2023-03-01T08:12:22;70.90;;;34.90;;
71558;SDS011;59382;43.852;25.952;2023-03-01T08:14:48;57.38;;;26.95;;
71558;SDS011;59382;43.852;25.952;2023-03-01T08:17:15;43.25;;;20.48;;
71558;SDS011;59382;43.852;25.952;2023-03-01T08:19:40;32.70;;;17.67;;
71558;SDS011;59382;43.852;25.952;2023-03-01T08:22:06;31.08;;;17.45;;
71558;SDS011;59382;43.852;25.952;2023-03-01T08:24:31;28.20;;;16.70;;
71558;SDS011;59382;43.852;25.952;2023-03-01T08:26:57;31.42;;;14.77;;
71558;SDS011;59382;43.852;25.952;2023-03-01T08:29:23;31.05;;;15.68;;
71558;SDS011;59382;43.852;25.952;2023-03-01T08:31:50;26.13;;;15.80;;
71558;SDS011;59382;43.852;25.952;2023-03-01T08:34:17;30.70;;;15.00;;
71558;SDS011;59382;43.852;25.952;2023-03-01T08:36:44;27.30;;;15.82;;
71558;SDS011;59382;43.852;25.952;2023-03-01T08:39:11;32.22;;;16.08;;
71558;SDS011;59382;43.852;25.952;2023-03-01T08:41:39;31.25;;;17.27;;
71558;SDS011;59382;43.852;25.952;2023-03-01T08:44:05;26.98;;;15.70;;
71558;SDS011;59382;43.852;25.952;2023-03-01T08:46:35;30.27;;;15.63;;
71558;SDS011;59382;43.852;25.952;2023-03-01T08:49:08;28.98;;;16.27;;
71558;SDS011;59382;43.852;25.952;2023-03-01T08:51:37;28.52;;;14.95;;
71558;SDS011;59382;43.852;25.952;2023-03-01T08:54:09;29.17;;;16.20;;
71558;SDS011;59382;43.852;25.952;2023-03-01T08:56:36;28.90;;;15.77;;
71558;SDS011;59382;43.852;25.952;2023-03-01T08:59:02;34.03;;;16.63;;
71558;SDS011;59382;43.852;25.952;2023-03-01T09:01:28;28.08;;;16.85;;
71558;SDS011;59382;43.852;25.952;2023-03-01T09:03:54;30.08;;;15.60;;
71558;SDS011;59382;43.852;25.952;2023-03-01T09:06:20;31.00;;;16.00;;
71558;SDS011;59382;43.852;25.952;2023-03-01T09:08:46;26.73;;;15.98;;
71558;SDS011;59382;43.852;25.952;2023-03-01T09:11:15;31.42;;;15.77;;
71558;SDS011;59382;43.852;25.952;2023-03-01T09:13:45;28.52;;;15.50;;
71558;SDS011;59382;43.852;25.952;2023-03-01T09:16:13;28.30;;;16.65;;
71558;SDS011;59382;43.852;25.952;2023-03-01T09:18:41;35.78;;;16.85;;
71558;SDS011;59382;43.852;25.952;2023-03-01T09:21:09;33.08;;;17.55;;
71558;SDS011;59382;43.852;25.952;2023-03-01T09:23:36;31.67;;;17.63;;
71558;SDS011;59382;43.852;25.952;2023-03-01T09:26:07;26.48;;;15.77;;
71558;SDS011;59382;43.852;25.952;2023-03-01T09:28:44;27.50;;;15.55;;
71558;SDS011;59382;43.852;25.952;2023-03-01T09:31:11;27.08;;;16.42;;
71558;SDS011;59382;43.852;25.952;2023-03-01T09:33:38;26.30;;;15.45;;
71558;SDS011;59382;43.852;25.952;2023-03-01T09:36:05;28.67;;;16.65;;
71558;SDS011;59382;43.852;25.952;2023-03-01T09:38:33;26.77;;;15.60;;
71558;SDS011;59382;43.852;25.952;2023-03-01T09:41:02;24.83;;;15.18;;
71558;SDS011;59382;43.852;25.952;2023-03-01T09:46:04;31.80;;;16.35;;
71558;SDS011;59382;43.852;25.952;2023-03-01T09:48:37;30.80;;;18.17;;
71558;SDS011;59382;43.852;25.952;2023-03-01T09:51:08;37.25;;;17.75;;
71558;SDS011;59382;43.852;25.952;2023-03-01T09:53:42;35.13;;;17.88;;
71558;SDS011;59382;43.852;25.952;2023-03-01T09:58:52;30.88;;;17.08;;
71558;SDS011;59382;43.852;25.952;2023-03-01T10:04:24;33.17;;;17.90;;
71558;SDS011;59382;43.852;25.952;2023-03-01T10:09:35;31.10;;;15.52;;
71558;SDS011;59382;43.852;25.952;2023-03-01T10:12:14;34.92;;;15.63;;
71558;SDS011;59382;43.852;25.952;2023-03-01T10:17:27;24.15;;;14.43;;
71558;SDS011;59382;43.852;25.952;2023-03-01T10:22:38;25.00;;;13.88;;
71558;SDS011;59382;43.852;25.952;2023-03-01T10:25:04;25.30;;;14.40;;
71558;SDS011;59382;43.852;25.952;2023-03-01T10:30:05;26.60;;;12.32;;
71558;SDS011;59382;43.852;25.952;2023-03-01T10:32:42;21.48;;;13.05;;
71558;SDS011;59382;43.852;25.952;2023-03-01T10:35:42;24.65;;;13.20;;
71558;SDS011;59382;43.852;25.952;2023-03-01T10:38:07;21.00;;;12.30;;
71558;SDS011;59382;43.852;25.952;2023-03-01T10:40:35;25.65;;;14.32;;
71558;SDS011;59382;43.852;25.952;2023-03-01T10:43:14;21.23;;;12.70;;
71558;SDS011;59382;43.852;25.952;2023-03-01T10:45:40;26.25;;;12.32;;
71558;SDS011;59382;43.852;25.952;2023-03-01T10:50:50;18.52;;;11.77;;
71558;SDS011;59382;43.852;25.952;2023-03-01T10:53:44;21.85;;;12.55;;
71558;SDS011;59382;43.852;25.952;2023-03-01T10:56:17;22.23;;;12.13;;
71558;SDS011;59382;43.852;25.952;2023-03-01T10:59:04;23.35;;;11.77;;
71558;SDS011;59382;43.852;25.952;2023-03-01T11:06:35;22.48;;;11.07;;
71558;SDS011;59382;43.852;25.952;2023-03-01T11:09:20;20.00;;;10.10;;
71558;SDS011;59382;43.852;25.952;2023-03-01T11:11:52;18.60;;;9.88;;
71558;SDS011;59382;43.852;25.952;2023-03-01T11:14:21;18.10;;;10.60;;
71558;SDS011;59382;43.852;25.952;2023-03-01T11:16:48;17.77;;;9.48;;
71558;SDS011;59382;43.852;25.952;2023-03-01T11:19:23;21.55;;;10.65;;
71558;SDS011;59382;43.852;25.952;2023-03-01T11:21:52;17.95;;;9.80;;
71558;SDS011;59382;43.852;25.952;2023-03-01T11:24:26;20.92;;;10.70;;
71558;SDS011;59382;43.852;25.952;2023-03-01T11:26:59;16.60;;;9.50;;
71558;SDS011;59382;43.852;25.952;2023-03-01T11:29:32;17.65;;;9.60;;
71558;SDS011;59382;43.852;25.952;2023-03-01T11:32:12;23.40;;;10.65;;
71558;SDS011;59382;43.852;25.952;2023-03-01T11:37:09;22.17;;;12.43;;
71558;SDS011;59382;43.852;25.952;2023-03-01T11:42:52;23.50;;;12.00;;
71558;SDS011;59382;43.852;25.952;2023-03-01T11:50:56;17.77;;;9.02;;
71558;SDS011;59382;43.852;25.952;2023-03-01T11:56:23;16.88;;;10.35;;
71558;SDS011;59382;43.852;25.952;2023-03-01T12:12:50;13.27;;;8.20;;
71558;SDS011;59382;43.852;25.952;2023-03-01T12:18:38;25.38;;;9.90;;
71558;SDS011;59382;43.852;25.952;2023-03-01T12:26:36;20.92;;;11.50;;
71558;SDS011;59382;43.852;25.952;2023-03-01T12:40:25;21.08;;;11.05;;
71558;SDS011;59382;43.852;25.952;2023-03-01T12:51:44;23.73;;;12.35;;
71558;SDS011;59382;43.852;25.952;2023-03-01T12:54:43;27.35;;;12.60;;
71558;SDS011;59382;43.852;25.952;2023-03-01T13:00:45;27.42;;;12.35;;
71558;SDS011;59382;43.852;25.952;2023-03-01T13:03:19;20.08;;;10.70;;
71558;SDS011;59382;43.852;25.952;2023-03-01T13:05:57;24.92;;;10.88;;
71558;SDS011;59382;43.852;25.952;2023-03-01T13:11:28;20.00;;;10.63;;
71558;SDS011;59382;43.852;25.952;2023-03-01T13:14:34;18.88;;;10.48;;
71558;SDS011;59382;43.852;25.952;2023-03-01T13:16:57;17.25;;;9.00;;
71558;SDS011;59382;43.852;25.952;2023-03-01T13:19:27;14.68;;;8.57;;
71558;SDS011;59382;43.852;25.952;2023-03-01T13:21:57;16.75;;;9.85;;
71558;SDS011;59382;43.852;25.952;2023-03-01T13:29:51;15.52;;;9.93;;
71558;SDS011;59382;43.852;25.952;2023-03-01T13:32:26;18.35;;;9.45;;
71558;SDS011;59382;43.852;25.952;2023-03-01T13:34:57;22.40;;;12.20;;
71558;SDS011;59382;43.852;25.952;2023-03-01T13:37:44;22.52;;;11.32;;
71558;SDS011;59382;43.852;25.952;2023-03-01T13:42:50;20.55;;;11.55;;
71558;SDS011;59382;43.852;25.952;2023-03-01T13:47:49;22.98;;;11.48;;
71558;SDS011;59382;43.852;25.952;2023-03-01T13:50:28;20.35;;;11.48;;
71558;SDS011;59382;43.852;25.952;2023-03-01T13:53:10;24.40;;;12.57;;
71558;SDS011;59382;43.852;25.952;2023-03-01T13:55:44;18.45;;;11.13;;
71558;SDS011;59382;43.852;25.952;2023-03-01T13:58:15;26.15;;;14.70;;
71558;SDS011;59382;43.852;25.952;2023-03-01T14:00:58;24.85;;;14.52;;
71558;SDS011;59382;43.852;25.952;2023-03-01T14:03:25;20.08;;;12.57;;
71558;SDS011;59382;43.852;25.952;2023-03-01T14:08:25;26.90;;;11.90;;
71558;SDS011;59382;43.852;25.952;2023-03-01T14:16:46;21.30;;;10.85;;
71558;SDS011;59382;43.852;25.952;2023-03-01T14:19:31;23.88;;;11.48;;
71558;SDS011;59382;43.852;25.952;2023-03-01T14:22:20;18.95;;;11.13;;
71558;SDS011;59382;43.852;25.952;2023-03-01T14:24:50;21.02;;;11.30;;
71558;SDS011;59382;43.852;25.952;2023-03-01T14:27:18;20.42;;;10.68;;
71558;SDS011;59382;43.852;25.952;2023-03-01T14:29:45;21.40;;;11.13;;
71558;SDS011;59382;43.852;25.952;2023-03-01T14:32:21;21.15;;;12.02;;
71558;SDS011;59382;43.852;25.952;2023-03-01T14:34:49;23.10;;;11.73;;
71558;SDS011;59382;43.852;25.952;2023-03-01T14:39:44;22.55;;;11.15;;
71558;SDS011;59382;43.852;25.952;2023-03-01T14:42:09;13.88;;;9.88;;
71558;SDS011;59382;43.852;25.952;2023-03-01T14:44:38;20.45;;;10.80;;
71558;SDS011;59382;43.852;25.952;2023-03-01T14:47:15;20.63;;;10.65;;
71558;SDS011;59382;43.852;25.952;2023-03-01T14:50:16;22.17;;;10.82;;
71558;SDS011;59382;43.852;25.952;2023-03-01T14:52:48;22.05;;;12.65;;
71558;SDS011;59382;43.852;25.952;2023-03-01T14:55:30;19.58;;;11.40;;
71558;SDS011;59382;43.852;25.952;2023-03-01T14:58:02;21.48;;;11.55;;
71558;SDS011;59382;43.852;25.952;2023-03-01T15:00:29;27.00;;;12.52;;
71558;SDS011;59382;43.852;25.952;2023-03-01T15:02:56;22.70;;;11.63;;
71558;SDS011;59382;43.852;25.952;2023-03-01T15:05:31;17.65;;;10.77;;
71558;SDS011;59382;43.852;25.952;2023-03-01T15:07:59;24.25;;;11.50;;
71558;SDS011;59382;43.852;25.952;2023-03-01T15:10:27;23.17;;;11.93;;
71558;SDS011;59382;43.852;25.952;2023-03-01T15:12:55;19.75;;;12.27;;
71558;SDS011;59382;43.852;25.952;2023-03-01T15:17:54;26.45;;;12.75;;
71558;SDS011;59382;43.852;25.952;2023-03-01T15:20:40;19.83;;;10.43;;
71558;SDS011;59382;43.852;25.952;2023-03-01T15:23:06;20.45;;;10.93;;
71558;SDS011;59382;43.852;25.952;2023-03-01T15:25:44;20.45;;;12.20;;
71558;SDS011;59382;43.852;25.952;2023-03-01T15:28:12;18.58;;;11.93;;
71558;SDS011;59382;43.852;25.952;2023-03-01T15:30:45;23.25;;;12.90;;
71558;SDS011;59382;43.852;25.952;2023-03-01T15:33:19;21.42;;;12.10;;
71558;SDS011;59382;43.852;25.952;2023-03-01T15:35:55;19.08;;;12.23;;
71558;SDS011;59382;43.852;25.952;2023-03-01T15:41:22;19.80;;;11.13;;
71558;SDS011;59382;43.852;25.952;2023-03-01T15:43:48;17.20;;;11.18;;
71558;SDS011;59382;43.852;25.952;2023-03-01T15:46:18;17.88;;;11.20;;
71558;SDS011;59382;43.852;25.952;2023-03-01T15:48:50;21.55;;;11.38;;
71558;SDS011;59382;43.852;25.952;2023-03-01T15:51:17;19.75;;;11.63;;
71558;SDS011;59382;43.852;25.952;2023-03-01T15:53:53;21.70;;;10.95;;
71558;SDS011;59382;43.852;25.952;2023-03-01T15:56:19;19.33;;;11.48;;
71558;SDS011;59382;43.852;25.952;2023-03-01T15:58:45;16.15;;;9.90;;
71558;SDS011;59382;43.852;25.952;2023-03-01T16:01:14;19.58;;;11.02;;
71558;SDS011;59382;43.852;25.952;2023-03-01T16:03:44;16.90;;;10.80;;
71558;SDS011;59382;43.852;25.952;2023-03-01T16:06:10;20.55;;;11.95;;
71558;SDS011;59382;43.852;25.952;2023-03-01T16:08:36;17.02;;;11.10;;
71558;SDS011;59382;43.852;25.952;2023-03-01T16:11:04;23.50;;;11.85;;
71558;SDS011;59382;43.852;25.952;2023-03-01T16:13:34;22.35;;;13.30;;
71558;SDS011;59382;43.852;25.952;2023-03-01T16:16:00;17.00;;;10.88;;
71558;SDS011;59382;43.852;25.952;2023-03-01T16:18:25;20.88;;;12.82;;
71558;SDS011;59382;43.852;25.952;2023-03-01T16:20:51;18.42;;;11.07;;
71558;SDS011;59382;43.852;25.952;2023-03-01T16:23:17;23.95;;;12.00;;
71558;SDS011;59382;43.852;25.952;2023-03-01T16:25:43;17.92;;;12.48;;
71558;SDS011;59382;43.852;25.952;2023-03-01T16:28:08;21.60;;;12.35;;
71558;SDS011;59382;43.852;25.952;2023-03-01T16:30:35;23.88;;;12.60;;
71558;SDS011;59382;43.852;25.952;2023-03-01T16:33:03;25.70;;;13.48;;
71558;SDS011;59382;43.852;25.952;2023-03-01T16:35:31;25.10;;;11.98;;
71558;SDS011;59382;43.852;25.952;2023-03-01T16:37:58;20.35;;;12.20;;